ADDS METAR Data INFO
IDs: Format: Raw Decoded Include TAF

Data at: 0853 UTC 19 Jun 2018

PPIZ 190756Z AUTO 03017KT 10SM OVC006 01/M01 A2991 RMK AO2 SLP134 T00111006 FZRANO TSNO PNO $
PPIZ 190656Z AUTO 03017KT 10SM OVC006 01/M01 A2990 RMK AO2 SLP130 T00111006 FZRANO TSNO PNO $
PPIZ 190556Z AUTO 03016KT 10SM OVC008 02/00 A2989 RMK AO2 SLP126 6//// T00170000 10028 20011 53011 FZRANO TSNO PNO $
PPIZ 190456Z AUTO 01017G23KT 10SM OVC006 02/01 A2987 RMK AO2 SLP120 T00170006 FZRANO TSNO PNO $
PPIZ 190408Z AUTO 36019KT 10SM OVC006 02/01 A2987 RMK AO2 FZRANO TSNO PNO $
PPIZ 190356Z AUTO 36019KT 10SM OVC004 02/01 A2987 RMK AO2 CIG 004V008 SLP117 T00220006 FZRANO TSNO PNO $
PPIZ 190256Z AUTO 36018KT 10SM OVC004 02/01 A2986 RMK AO2 SLP115 6//// T00220011 51003 FZRANO TSNO PNO $
PPIZ 190156Z AUTO 36019KT 10SM OVC004 02/01 A2986 RMK AO2 SLP115 T00170006 FZRANO TSNO PNO $
PPIZ 182315Z AUTO 35016KT 10SM BKN004 02/01 A2985 RMK AO2 FZRANO TSNO PNO $
PPIZ 182256Z AUTO 35015KT 10SM FEW004 03/01 A2985 RMK AO2 SLP111 T00280011 TSNO PNO $
PPIZ 182253Z AUTO 36015KT 10SM FEW004 03/01 A2985 RMK AO2 TSNO PNO $
PPIZ 182056Z AUTO 35012KT 10SM CLR 05/01 A2983 RMK AO2 SLP107 6//// T00500011 53002 TSNO PNO $
PPIZ 181956Z AUTO 35012KT 10SM CLR 06/M01 A2983 RMK AO2 SLP104 T00561011 TSNO PNO $
PPIZ 181856Z AUTO 36011KT 10SM CLR 04/M01 A2983 RMK AO2 SLP105 T00441011 TSNO PNO $
PPIZ 181756Z AUTO 35011KT 10SM CLR 04/M01 A2983 RMK AO2 SLP104 6//// T00391006 10044 20011 52003 TSNO PNO $
PPIZ 181656Z AUTO 01010KT 10SM CLR 04/00 A2982 RMK AO2 SLP103 T00390000 TSNO PNO $
PPIZ 181556Z AUTO 36010KT 10SM CLR 03/01 A2982 RMK AO2 SLP103 T00330006 TSNO PNO $
PPIZ 181456Z AUTO 03008KT 10SM CLR 04/00 A2982 RMK AO2 SLP102 6//// T00390000 56002 TSNO PNO $
PPIZ 181356Z AUTO 36011KT 10SM CLR 02/00 A2982 RMK AO2 SLP102 T00170000 FZRANO TSNO PNO $
PPIZ 181256Z AUTO 01009KT 10SM CLR 01/M01 A2982 RMK AO2 SLP103 T00111006 FZRANO TSNO PNO $
PPIZ 181156Z AUTO 01009KT 10SM CLR 01/M01 A2983 RMK AO2 SLP104 6//// 7//// T00111006 10050 20011 58002 FZRANO TSNO PNO $
PPIZ 181056Z AUTO 36011KT 10SM CLR 01/00 A2983 RMK AO2 SLP106 T00110000 FZRANO TSNO PNO $
PPIZ 180956Z AUTO 01010KT 10SM CLR 01/M01 A2984 RMK AO2 SLP108 T00111006 FZRANO TSNO PNO $
PPIZ 180856Z AUTO 01010KT 10SM CLR 02/00 A2983 RMK AO2 SLP106 6//// T00220000 400611022 53004 FZRANO TSNO PNO $
PPIZ 180756Z AUTO 01014KT 10SM CLR 03/01 A2983 RMK AO2 SLP104 T00280006 TSNO PNO $
PPIZ 180656Z AUTO 36013KT 10SM CLR 04/02 A2982 RMK AO2 SLP103 T00390017 TSNO PNO $
PPIZ 180556Z AUTO 01015KT 10SM CLR 05/01 A2982 RMK AO2 SLP103 6//// T00500006 10056 20039 55003 TSNO PNO $
PPIZ 180456Z AUTO 01016KT 10SM CLR 06/01 A2982 RMK AO2 SLP102 T00560006 TSNO PNO $
PPIZ 180356Z AUTO 01017KT 10SM CLR 04/02 A2982 RMK AO2 SLP101 T00440017 TSNO PNO $
PPIZ 180256Z AUTO 36017KT 10SM CLR 04/02 A2983 RMK AO2 SLP105 6//// T00440017 58003 TSNO PNO $
PPIZ 180156Z AUTO 36018KT 10SM CLR 04/02 A2983 RMK AO2 SLP106 T00440017 TSNO PNO $
PPIZ 180056Z AUTO 36017KT 10SM CLR 05/01 A2984 RMK AO2 SLP108 T00500011 TSNO PNO $
PPIZ 172356Z AUTO 36018KT 10SM CLR 04/01 A2984 RMK AO2 SLP108 6//// T00440011 10061 20017 56004 TSNO PNO $
PPIZ 172256Z AUTO 36016KT 10SM CLR 04/01 A2984 RMK AO2 SLP108 T00390011 TSNO PNO $
PPIZ 172156Z AUTO 01016KT 10SM CLR 04/01 A2984 RMK AO2 SLP110 T00440006 TSNO PNO $
PPIZ 172056Z AUTO 36013KT 10SM CLR 06/02 A2985 RMK AO2 SLP112 6//// T00610017 56011 TSNO PNO $